createdAt,value
2023-03-17T00:01:51.097Z,74.29
2023-03-17T00:04:22.763Z,74.67
2023-03-17T00:06:49.392Z,74.09
2023-03-17T00:09:18.187Z,74.40
2023-03-17T00:11:45.991Z,74.46
2023-03-17T00:14:12.931Z,74.74
2023-03-17T00:16:44.812Z,74.64
2023-03-17T00:19:33.046Z,74.84
2023-03-17T00:22:00.943Z,74.87
2023-03-17T00:24:28.386Z,75.11
2023-03-17T00:26:55.015Z,74.73
2023-03-17T00:29:21.430Z,74.64
2023-03-17T00:31:50.760Z,74.80
2023-03-17T00:34:18.850Z,74.73
2023-03-17T00:36:49.660Z,74.58
2023-03-17T00:41:43.523Z,74.35
2023-03-17T00:44:10.073Z,74.52
2023-03-17T00:46:38.729Z,74.70
2023-03-17T00:49:21.382Z,74.69
2023-03-17T00:51:49.694Z,74.83
2023-03-17T00:54:17.475Z,74.39
2023-03-17T00:56:44.811Z,74.61
2023-03-17T00:59:33.549Z,74.79
2023-03-17T01:02:00.329Z,74.76
2023-03-17T01:04:26.900Z,75.00
2023-03-17T01:06:53.987Z,74.68
2023-03-17T01:09:25.696Z,74.73
2023-03-17T01:11:52.990Z,74.70
2023-03-17T01:14:19.442Z,74.35
2023-03-17T01:16:47.703Z,74.21
2023-03-17T01:19:14.632Z,74.14
2023-03-17T01:21:42.461Z,74.05
2023-03-17T01:24:09.565Z,74.27
2023-03-17T01:26:36.332Z,74.36
2023-03-17T01:29:04.727Z,74.35
2023-03-17T01:31:31.454Z,74.45
2023-03-17T01:33:58.000Z,74.61
2023-03-17T01:36:24.525Z,74.48
2023-03-17T01:38:51.013Z,74.39
2023-03-17T01:41:18.941Z,74.75
2023-03-17T01:43:45.423Z,74.77
2023-03-17T01:46:30.919Z,74.56
2023-03-17T01:49:09.409Z,74.73
2023-03-17T01:51:44.571Z,74.79
2023-03-17T01:54:17.059Z,74.97
2023-03-17T01:56:47.218Z,75.01
2023-03-17T01:59:19.427Z,75.12
2023-03-17T02:01:49.578Z,75.29
2023-03-17T02:04:16.629Z,75.38
2023-03-17T02:06:55.269Z,75.28
2023-03-17T02:09:24.053Z,75.38
2023-03-17T02:11:50.851Z,75.75
2023-03-17T02:14:17.767Z,75.52
2023-03-17T02:16:45.121Z,75.45
2023-03-17T02:19:11.669Z,75.33
2023-03-17T02:21:45.198Z,75.36
2023-03-17T02:24:27.835Z,75.38
2023-03-17T02:26:57.622Z,75.31
2023-03-17T02:29:27.616Z,75.16
2023-03-17T02:31:54.620Z,75.38
2023-03-17T02:34:29.635Z,75.42
2023-03-17T02:36:56.136Z,75.20
2023-03-17T02:39:22.852Z,75.35
2023-03-17T02:41:50.051Z,75.06
2023-03-17T02:44:17.251Z,75.27
2023-03-17T02:46:44.170Z,75.10
2023-03-17T02:49:11.829Z,75.01
2023-03-17T02:51:38.750Z,75.15
2023-03-17T02:54:05.662Z,75.11
2023-03-17T02:56:32.746Z,75.13
2023-03-17T02:58:59.171Z,75.13
2023-03-17T03:01:26.874Z,75.39
2023-03-17T03:03:53.465Z,75.28
2023-03-17T03:06:19.869Z,75.28
2023-03-17T03:08:46.802Z,75.22
2023-03-17T03:11:13.244Z,74.79
2023-03-17T03:13:39.709Z,74.99
2023-03-17T03:16:06.723Z,74.89
2023-03-17T03:18:33.549Z,74.79
2023-03-17T03:21:00.915Z,74.64
2023-03-17T03:23:28.124Z,74.99
2023-03-17T03:25:54.633Z,74.76
2023-03-17T03:28:21.286Z,74.76
2023-03-17T03:30:47.748Z,74.92
2023-03-17T03:33:15.259Z,74.82
2023-03-17T03:35:41.721Z,74.77
2023-03-17T03:38:08.545Z,74.56
2023-03-17T03:40:36.905Z,74.38
2023-03-17T03:43:16.264Z,74.33
2023-03-17T03:45:49.116Z,74.19
2023-03-17T03:48:15.615Z,74.09
2023-03-17T03:50:42.129Z,73.74
2023-03-17T03:53:08.602Z,74.03
2023-03-17T03:55:35.037Z,74.13
2023-03-17T03:58:01.473Z,73.55
2023-03-17T04:00:27.978Z,73.58
2023-03-17T04:02:54.472Z,73.94
2023-03-17T04:05:21.129Z,73.64
2023-03-17T04:07:47.840Z,73.77
2023-03-17T04:10:15.783Z,73.40
2023-03-17T04:12:42.889Z,73.32
2023-03-17T04:15:11.307Z,73.40
2023-03-17T04:17:38.114Z,73.48
2023-03-17T04:20:05.280Z,73.46
2023-03-17T04:22:31.774Z,73.48
2023-03-17T04:24:58.220Z,73.69
2023-03-17T04:27:24.627Z,73.48
2023-03-17T04:29:51.037Z,73.32
2023-03-17T04:32:17.662Z,73.34
2023-03-17T04:34:44.110Z,73.08
2023-03-17T04:37:11.729Z,73.11
2023-03-17T04:39:38.786Z,73.22
2023-03-17T04:42:06.064Z,73.04
2023-03-17T04:44:32.622Z,73.02
2023-03-17T04:47:03.440Z,73.22
2023-03-17T04:49:29.923Z,73.19
2023-03-17T04:51:56.330Z,72.67
2023-03-17T04:54:23.070Z,72.97
2023-03-17T04:56:49.474Z,72.91
2023-03-17T04:59:16.254Z,72.97
2023-03-17T05:01:42.790Z,72.70
2023-03-17T05:04:11.152Z,72.41
2023-03-17T05:06:39.567Z,72.27
2023-03-17T05:09:06.267Z,72.37
2023-03-17T05:11:32.743Z,72.41
2023-03-17T05:13:59.186Z,72.45
2023-03-17T05:16:25.731Z,72.44
2023-03-17T05:18:52.194Z,72.71
2023-03-17T05:21:18.607Z,72.41
2023-03-17T05:23:45.073Z,72.54
2023-03-17T05:26:11.510Z,72.74
2023-03-17T05:28:38.156Z,72.47
2023-03-17T05:31:05.271Z,72.87
2023-03-17T05:33:31.759Z,72.97
2023-03-17T05:35:58.409Z,72.96
2023-03-17T05:38:25.043Z,73.08
2023-03-17T05:40:52.652Z,73.04
2023-03-17T05:43:19.433Z,72.83
2023-03-17T05:45:47.264Z,72.90
2023-03-17T05:48:13.814Z,73.25
2023-03-17T05:50:41.623Z,72.86
2023-03-17T05:53:08.617Z,73.25
2023-03-17T05:55:35.161Z,73.10
2023-03-17T05:58:04.254Z,72.97
2023-03-17T06:00:31.404Z,73.45
2023-03-17T06:02:58.424Z,73.33
2023-03-17T06:05:24.915Z,73.22
2023-03-17T06:07:55.762Z,73.27
2023-03-17T06:10:24.099Z,73.45
2023-03-17T06:12:50.877Z,73.80
2023-03-17T06:15:17.395Z,73.80
2023-03-17T06:17:43.909Z,73.99
2023-03-17T06:20:11.796Z,74.14
2023-03-17T06:22:42.347Z,73.90
2023-03-17T06:25:15.461Z,74.08
2023-03-17T06:27:42.619Z,74.24
2023-03-17T06:30:10.139Z,74.28
2023-03-17T06:32:36.669Z,73.98
2023-03-17T06:35:05.205Z,74.49
2023-03-17T06:37:31.690Z,74.37
2023-03-17T06:39:58.338Z,74.35
2023-03-17T06:42:24.832Z,74.60
2023-03-17T06:44:52.544Z,74.58
2023-03-17T06:47:19.980Z,74.36
2023-03-17T06:49:46.539Z,74.46
2023-03-17T06:52:14.011Z,74.17
2023-03-17T06:54:41.242Z,74.17
2023-03-17T06:57:07.960Z,74.12
2023-03-17T06:59:34.359Z,74.06
2023-03-17T07:02:00.875Z,73.84
2023-03-17T07:04:27.455Z,73.60
2023-03-17T07:06:54.448Z,73.73
2023-03-17T07:09:22.048Z,73.71
2023-03-17T07:11:48.479Z,73.61
2023-03-17T07:14:14.915Z,73.35
2023-03-17T07:16:41.350Z,73.45
2023-03-17T07:19:08.219Z,73.39
2023-03-17T07:21:34.628Z,73.11
2023-03-17T07:24:01.605Z,73.60
2023-03-17T07:26:28.103Z,73.23
2023-03-17T07:28:54.568Z,72.37
2023-03-17T07:31:21.352Z,72.35
2023-03-17T07:33:47.918Z,72.13
2023-03-17T07:36:15.928Z,71.75
2023-03-17T07:38:43.211Z,69.98
2023-03-17T07:41:10.097Z,69.88
2023-03-17T07:43:37.718Z,69.76
2023-03-17T07:46:06.375Z,68.64
2023-03-17T07:48:34.238Z,67.29
2023-03-17T07:51:00.933Z,66.87
2023-03-17T07:53:27.573Z,66.89
2023-03-17T07:55:54.310Z,67.20
2023-03-17T07:58:21.659Z,66.39
2023-03-17T08:00:48.421Z,66.24
2023-03-17T08:03:15.442Z,65.93
2023-03-17T08:05:41.943Z,65.35
2023-03-17T08:08:08.421Z,63.85
2023-03-17T08:10:35.416Z,62.96
2023-03-17T08:13:02.395Z,59.84
2023-03-17T08:15:30.803Z,57.45
2023-03-17T08:17:57.365Z,57.10
2023-03-17T08:20:23.760Z,55.74
2023-03-17T08:22:50.233Z,53.88
2023-03-17T08:25:17.767Z,51.53
2023-03-17T08:27:44.280Z,51.90
2023-03-17T08:30:12.524Z,50.86
2023-03-17T08:32:39.073Z,49.99
2023-03-17T08:35:06.297Z,49.69
2023-03-17T08:37:34.692Z,47.73
2023-03-17T08:40:01.121Z,45.44
2023-03-17T08:42:27.550Z,44.57
2023-03-17T08:44:54.060Z,44.88
2023-03-17T08:47:20.464Z,43.32
2023-03-17T08:49:46.871Z,44.41
2023-03-17T08:52:13.414Z,41.99
2023-03-17T08:54:39.929Z,40.74
2023-03-17T08:57:06.549Z,41.35
2023-03-17T08:59:33.541Z,42.62
2023-03-17T09:02:00.597Z,40.64
2023-03-17T09:04:27.993Z,40.75
2023-03-17T09:07:03.236Z,40.39
2023-03-17T09:09:31.289Z,42.84
2023-03-17T09:11:58.316Z,44.67
2023-03-17T09:14:25.020Z,44.70
2023-03-17T09:16:52.252Z,44.78
2023-03-17T09:19:19.064Z,45.14
2023-03-17T09:21:45.752Z,46.27
2023-03-17T09:24:12.476Z,47.03
2023-03-17T09:26:39.347Z,47.43
2023-03-17T09:29:07.180Z,47.81
2023-03-17T09:31:36.404Z,48.01
2023-03-17T09:34:05.099Z,48.53
2023-03-17T09:36:33.115Z,48.78
2023-03-17T09:39:00.881Z,49.34
2023-03-17T09:41:48.636Z,49.55
2023-03-17T09:44:48.096Z,50.35
2023-03-17T09:47:14.447Z,50.12
2023-03-17T09:49:47.332Z,50.35
2023-03-17T09:52:24.974Z,51.19
2023-03-17T09:54:51.494Z,50.44
2023-03-17T09:57:29.437Z,50.90
2023-03-17T10:00:01.460Z,51.03
2023-03-17T10:02:31.806Z,51.44
2023-03-17T10:04:59.561Z,51.96
2023-03-17T10:07:37.540Z,52.00
2023-03-17T10:10:13.390Z,51.38
2023-03-17T10:13:03.639Z,51.37
2023-03-17T10:16:06.093Z,51.92
2023-03-17T10:18:46.241Z,52.38
2023-03-17T10:21:18.507Z,52.85
2023-03-17T10:23:45.570Z,53.24
2023-03-17T10:26:31.138Z,53.40
2023-03-17T10:28:59.680Z,54.09
2023-03-17T10:31:35.519Z,54.07
2023-03-17T10:34:13.641Z,53.91
2023-03-17T10:36:44.338Z,54.55
2023-03-17T10:39:14.587Z,54.46
2023-03-17T10:41:52.546Z,54.23
2023-03-17T10:44:33.727Z,53.11
2023-03-17T10:47:00.678Z,54.03
2023-03-17T10:49:35.265Z,54.36
2023-03-17T10:52:07.576Z,53.56
2023-03-17T10:54:36.881Z,53.79
2023-03-17T10:57:08.255Z,54.23
2023-03-17T10:59:46.234Z,54.58
2023-03-17T11:02:31.540Z,54.04
2023-03-17T11:05:09.375Z,54.09
2023-03-17T11:07:38.959Z,53.95
2023-03-17T11:10:39.625Z,53.95
2023-03-17T11:13:06.717Z,54.46
2023-03-17T11:15:42.906Z,54.42
2023-03-17T11:18:26.205Z,54.62
2023-03-17T11:21:19.621Z,55.02
2023-03-17T11:23:51.495Z,54.39
2023-03-17T11:26:59.104Z,54.56
2023-03-17T11:29:28.194Z,54.62
2023-03-17T11:32:32.641Z,54.34
2023-03-17T11:35:08.876Z,55.30
2023-03-17T11:38:14.498Z,54.67
2023-03-17T11:40:51.445Z,55.31
2023-03-17T11:43:30.101Z,54.29
2023-03-17T11:46:28.198Z,53.75
2023-03-17T11:49:10.882Z,52.99
2023-03-17T11:52:01.563Z,52.85
2023-03-17T11:54:41.377Z,52.91
2023-03-17T11:57:24.832Z,52.56
2023-03-17T12:00:04.025Z,53.11
2023-03-17T12:02:48.926Z,52.75
2023-03-17T12:05:34.948Z,53.79
2023-03-17T12:08:23.291Z,54.10
2023-03-17T12:10:54.610Z,54.21
2023-03-17T12:13:43.368Z,53.49
2023-03-17T12:16:25.527Z,53.08
2023-03-17T12:19:19.382Z,52.56
2023-03-17T12:22:02.515Z,52.29
2023-03-17T12:24:40.291Z,52.94
2023-03-17T12:27:19.854Z,53.33
2023-03-17T12:29:49.948Z,53.54
2023-03-17T12:32:22.898Z,52.77
2023-03-17T12:34:57.703Z,52.29
2023-03-17T12:37:27.390Z,52.32
2023-03-17T12:40:06.457Z,52.90
2023-03-17T12:42:42.481Z,52.71
2023-03-17T12:45:35.248Z,53.20
2023-03-17T12:48:33.542Z,53.71
2023-03-17T12:51:09.446Z,54.55
2023-03-17T12:53:44.935Z,54.97
2023-03-17T12:56:32.297Z,56.08
2023-03-17T12:59:08.677Z,55.40
2023-03-17T13:01:38.476Z,55.09
2023-03-17T13:04:29.914Z,54.08
2023-03-17T13:07:08.430Z,54.06
2023-03-17T13:09:43.123Z,54.53
2023-03-17T13:12:44.514Z,54.30
2023-03-17T13:15:35.960Z,53.71
2023-03-17T13:18:17.623Z,54.08
2023-03-17T13:20:45.665Z,53.61
2023-03-17T13:23:12.045Z,54.09
2023-03-17T13:25:41.721Z,53.92
2023-03-17T13:28:11.736Z,53.96
2023-03-17T13:30:38.447Z,54.67
2023-03-17T13:33:11.162Z,55.22
2023-03-17T13:36:05.799Z,54.99
2023-03-17T13:38:35.437Z,54.89
2023-03-17T13:41:26.807Z,54.34
2023-03-17T13:44:02.453Z,54.60
2023-03-17T13:46:39.008Z,55.05
2023-03-17T13:49:36.680Z,54.84
2023-03-17T13:52:08.093Z,54.81
2023-03-17T13:54:41.832Z,54.46
2023-03-17T13:57:36.478Z,54.76
2023-03-17T14:00:24.101Z,54.78
2023-03-17T14:03:05.032Z,55.12
2023-03-17T14:05:37.684Z,54.67
2023-03-17T14:08:32.103Z,55.74
2023-03-17T14:11:01.506Z,54.91
2023-03-17T14:13:35.388Z,54.53
2023-03-17T14:16:12.228Z,54.73
2023-03-17T14:18:42.099Z,54.07
2023-03-17T14:21:19.855Z,54.92
2023-03-17T14:23:57.408Z,54.86
2023-03-17T14:26:29.556Z,54.46
2023-03-17T14:28:59.776Z,54.30
2023-03-17T14:31:28.826Z,54.84
2023-03-17T14:34:02.477Z,54.88
2023-03-17T14:36:34.285Z,53.80
2023-03-17T14:39:00.877Z,54.47
2023-03-17T14:41:28.347Z,54.86
2023-03-17T14:44:00.018Z,54.47
2023-03-17T14:46:32.043Z,54.05
2023-03-17T14:49:14.298Z,54.23
2023-03-17T14:51:41.971Z,54.21
2023-03-17T14:54:17.859Z,53.75
2023-03-17T14:56:50.623Z,54.32
2023-03-17T14:59:23.524Z,53.53
2023-03-17T15:01:55.332Z,53.48
2023-03-17T15:04:34.594Z,53.58
2023-03-17T15:07:04.446Z,53.84
2023-03-17T15:09:36.117Z,54.34
2023-03-17T15:12:38.387Z,54.13
2023-03-17T15:15:09.093Z,54.48
2023-03-17T15:17:37.108Z,54.65
2023-03-17T15:20:07.438Z,54.56
2023-03-17T15:22:43.828Z,53.84
2023-03-17T15:25:29.281Z,53.87
2023-03-17T15:27:55.984Z,53.19
2023-03-17T15:30:22.851Z,53.42
2023-03-17T15:32:58.587Z,53.32
2023-03-17T15:35:25.293Z,53.66
2023-03-17T15:37:51.698Z,52.86
2023-03-17T15:40:18.562Z,53.70
2023-03-17T15:42:45.662Z,53.72
2023-03-17T15:45:20.865Z,53.53
2023-03-17T15:47:47.351Z,53.31
2023-03-17T15:50:28.742Z,53.13
2023-03-17T15:52:58.858Z,53.25
2023-03-17T15:55:30.601Z,53.54
2023-03-17T15:57:58.587Z,53.52
2023-03-17T16:00:29.021Z,54.17
2023-03-17T16:03:00.209Z,54.81
2023-03-17T16:05:31.051Z,55.18
2023-03-17T16:07:57.748Z,55.38
2023-03-17T16:10:27.041Z,55.20
2023-03-17T16:12:54.426Z,55.10
2023-03-17T16:15:23.916Z,55.44
2023-03-17T16:17:58.343Z,55.67
2023-03-17T16:20:37.218Z,55.76
2023-03-17T16:23:24.384Z,56.08
2023-03-17T16:25:51.658Z,55.92
2023-03-17T16:28:21.040Z,56.53
2023-03-17T16:30:48.574Z,56.61
2023-03-17T16:33:22.068Z,56.67
2023-03-17T16:35:49.405Z,56.91
2023-03-17T16:38:18.747Z,57.31
2023-03-17T16:40:47.957Z,57.33
2023-03-17T16:43:25.455Z,57.47
2023-03-17T16:45:54.340Z,57.24
2023-03-17T16:48:20.826Z,57.49
2023-03-17T16:50:47.415Z,57.70
2023-03-17T16:53:13.904Z,57.64
2023-03-17T16:55:41.583Z,57.87
2023-03-17T16:58:19.933Z,58.29
2023-03-17T17:00:48.065Z,58.78
2023-03-17T17:03:14.966Z,58.39
2023-03-17T17:05:42.298Z,59.14
2023-03-17T17:08:09.096Z,60.23
2023-03-17T17:10:36.908Z,60.91
2023-03-17T17:13:07.623Z,61.33
2023-03-17T17:15:36.024Z,61.88
2023-03-17T17:18:06.921Z,61.66
2023-03-17T17:20:39.309Z,62.24
2023-03-17T17:23:11.089Z,63.32
2023-03-17T17:25:37.602Z,63.87
2023-03-17T17:28:04.179Z,64.83
2023-03-17T17:30:31.091Z,65.16
2023-03-17T17:32:59.585Z,65.30
2023-03-17T17:35:30.716Z,66.11
2023-03-17T17:37:59.159Z,66.28
2023-03-17T17:40:26.260Z,67.49
2023-03-17T17:42:53.554Z,67.61
2023-03-17T17:45:20.932Z,68.03
2023-03-17T17:47:48.015Z,68.58
2023-03-17T17:50:23.142Z,69.58
2023-03-17T17:52:49.624Z,69.58
2023-03-17T17:55:16.499Z,69.32
2023-03-17T17:57:42.998Z,69.98
2023-03-17T18:00:14.390Z,69.83
2023-03-17T18:02:40.817Z,69.95
2023-03-17T18:05:08.991Z,70.24
2023-03-17T18:07:35.860Z,70.92
2023-03-17T18:10:02.965Z,70.79
2023-03-17T18:12:29.583Z,70.67
2023-03-17T18:14:56.062Z,70.35
2023-03-17T18:17:22.909Z,70.72
2023-03-17T18:19:50.374Z,71.00
2023-03-17T18:22:16.980Z,71.27
2023-03-17T18:24:44.024Z,71.61
2023-03-17T18:27:11.413Z,71.49
2023-03-17T18:29:38.479Z,71.54
2023-03-17T18:32:06.918Z,71.61
2023-03-17T18:34:40.618Z,70.95
2023-03-17T18:37:07.671Z,70.40
2023-03-17T18:39:36.700Z,70.25
2023-03-17T18:42:05.602Z,69.96
2023-03-17T18:44:32.026Z,69.76
2023-03-17T18:46:58.486Z,69.49
2023-03-17T18:49:27.349Z,69.41
2023-03-17T18:51:56.581Z,69.42
2023-03-17T18:54:23.776Z,69.58
2023-03-17T18:56:50.601Z,69.55
2023-03-17T18:59:17.016Z,69.84
2023-03-17T19:01:43.534Z,69.70
2023-03-17T19:04:10.015Z,69.98
2023-03-17T19:06:39.401Z,70.02
2023-03-17T19:09:06.634Z,69.99
2023-03-17T19:11:35.643Z,70.16
2023-03-17T19:14:02.061Z,69.95
2023-03-17T19:16:29.138Z,69.48
2023-03-17T19:18:56.609Z,69.76
2023-03-17T19:21:23.631Z,69.74
2023-03-17T19:23:50.868Z,69.75
2023-03-17T19:26:17.912Z,69.41
2023-03-17T19:28:44.762Z,69.50
2023-03-17T19:31:12.190Z,69.81
2023-03-17T19:33:39.523Z,69.96
2023-03-17T19:36:12.143Z,70.06
2023-03-17T19:38:39.381Z,70.00
2023-03-17T19:41:06.697Z,69.76
2023-03-17T19:43:40.795Z,69.31
2023-03-17T19:46:08.711Z,68.90
2023-03-17T19:48:36.384Z,68.80
2023-03-17T19:51:03.152Z,68.38
2023-03-17T19:53:31.858Z,68.38
2023-03-17T19:55:58.280Z,67.97
2023-03-17T19:58:25.231Z,67.80
2023-03-17T20:00:51.722Z,67.56
2023-03-17T20:03:18.385Z,67.35
2023-03-17T20:05:46.089Z,67.04
2023-03-17T20:08:12.544Z,66.81
2023-03-17T20:10:39.173Z,67.03
2023-03-17T20:13:09.323Z,67.52
2023-03-17T20:15:36.634Z,67.09
2023-03-17T20:18:03.857Z,66.98
2023-03-17T20:20:31.327Z,67.16
2023-03-17T20:22:57.946Z,67.50
2023-03-17T20:25:24.460Z,67.63
2023-03-17T20:27:51.036Z,67.82
2023-03-17T20:30:17.713Z,67.92
2023-03-17T20:32:44.247Z,68.08
2023-03-17T20:35:11.263Z,68.39
2023-03-17T20:37:41.335Z,68.75
2023-03-17T20:40:09.869Z,68.64
2023-03-17T20:42:36.415Z,69.05
2023-03-17T20:45:03.559Z,69.15
2023-03-17T20:47:30.620Z,69.39
2023-03-17T20:49:58.793Z,69.72
2023-03-17T20:52:30.252Z,69.81
2023-03-17T20:54:59.379Z,69.94
2023-03-17T20:57:26.250Z,70.04
2023-03-17T20:59:52.676Z,70.22
2023-03-17T21:02:19.261Z,70.23
2023-03-17T21:04:48.666Z,70.89
2023-03-17T21:07:17.058Z,70.91
2023-03-17T21:09:43.883Z,70.98
2023-03-17T21:12:20.460Z,71.12
2023-03-17T21:14:48.190Z,71.04
2023-03-17T21:17:16.357Z,71.21
2023-03-17T21:19:43.205Z,71.18
2023-03-17T21:22:10.351Z,71.47
2023-03-17T21:24:38.420Z,71.59
2023-03-17T21:27:06.844Z,71.72
2023-03-17T21:29:34.241Z,71.84
2023-03-17T21:32:01.625Z,71.86
2023-03-17T21:34:29.944Z,72.07
2023-03-17T21:36:57.264Z,72.26
2023-03-17T21:39:25.786Z,72.28
2023-03-17T21:41:57.543Z,72.59
2023-03-17T21:44:24.509Z,72.98
2023-03-17T21:46:56.363Z,72.94
2023-03-17T21:49:24.588Z,72.84
2023-03-17T21:51:51.763Z,72.75
2023-03-17T21:54:18.287Z,73.30
2023-03-17T21:56:44.762Z,73.47
2023-03-17T21:59:13.316Z,73.53
2023-03-17T22:01:45.891Z,73.94
2023-03-17T22:04:12.906Z,74.02
2023-03-17T22:06:40.146Z,73.87
2023-03-17T22:09:09.301Z,74.41
2023-03-17T22:11:35.799Z,74.47
2023-03-17T22:14:02.852Z,74.58
2023-03-17T22:16:29.300Z,74.72
2023-03-17T22:18:55.793Z,75.11
2023-03-17T22:21:23.441Z,75.20
2023-03-17T22:23:49.970Z,75.54
2023-03-17T22:26:18.917Z,75.59
2023-03-17T22:28:46.646Z,75.99
2023-03-17T22:31:21.365Z,76.37
2023-03-17T22:33:49.070Z,76.43
2023-03-17T22:36:16.353Z,76.52
2023-03-17T22:38:42.805Z,76.83
2023-03-17T22:41:13.761Z,77.13
2023-03-17T22:43:41.643Z,77.35
2023-03-17T22:46:09.534Z,77.33
2023-03-17T22:48:36.746Z,77.62
2023-03-17T22:51:05.976Z,77.87
2023-03-17T22:53:33.325Z,78.39
2023-03-17T22:56:00.563Z,78.52
2023-03-17T22:58:28.032Z,78.84
2023-03-17T23:00:56.134Z,79.23
2023-03-17T23:03:24.163Z,78.93
2023-03-17T23:05:53.575Z,79.16
2023-03-17T23:08:21.538Z,79.61
2023-03-17T23:10:49.912Z,80.15
2023-03-17T23:13:18.886Z,80.23
2023-03-17T23:15:45.976Z,80.55
2023-03-17T23:18:12.416Z,80.54
2023-03-17T23:20:42.228Z,81.05
2023-03-17T23:23:10.167Z,81.32
2023-03-17T23:25:38.307Z,81.35
2023-03-17T23:28:06.069Z,81.55
2023-03-17T23:30:33.560Z,81.83
2023-03-17T23:33:01.101Z,82.07
2023-03-17T23:35:27.819Z,82.25
2023-03-17T23:37:54.439Z,82.60
2023-03-17T23:40:22.043Z,82.82
2023-03-17T23:42:49.050Z,82.98
2023-03-17T23:45:18.013Z,83.66
2023-03-17T23:47:45.949Z,83.84
2023-03-17T23:50:14.451Z,83.64
2023-03-17T23:52:42.360Z,83.72
2023-03-17T23:55:10.455Z,83.95
2023-03-17T23:57:37.830Z,83.99
